sensor_id;sensor_type;location;lat;lon;timestamp;temperature;humidity
66576;SHT31;53428;47.686;16.584;2023-11-19T00:02:15;2.91;86.82
66576;SHT31;53428;47.686;16.584;2023-11-19T00:07:15;2.91;87.44
66576;SHT31;53428;47.686;16.584;2023-11-19T00:12:14;2.84;87.47
66576;SHT31;53428;47.686;16.584;2023-11-19T00:17:14;2.82;87.22
66576;SHT31;53428;47.686;16.584;2023-11-19T00:22:14;2.84;87.15
66576;SHT31;53428;47.686;16.584;2023-11-19T00:27:13;2.79;87.64
66576;SHT31;53428;47.686;16.584;2023-11-19T00:32:12;2.85;86.94
66576;SHT31;53428;47.686;16.584;2023-11-19T00:37:12;2.91;87.26
66576;SHT31;53428;47.686;16.584;2023-11-19T00:42:11;2.98;87.63
66576;SHT31;53428;47.686;16.584;2023-11-19T00:47:10;3.06;88.06
66576;SHT31;53428;47.686;16.584;2023-11-19T00:52:09;3.12;87.92
66576;SHT31;53428;47.686;16.584;2023-11-19T00:57:08;3.29;87.28
66576;SHT31;53428;47.686;16.584;2023-11-19T01:02:08;3.79;82.94
66576;SHT31;53428;47.686;16.584;2023-11-19T01:07:07;4.09;81.57
66576;SHT31;53428;47.686;16.584;2023-11-19T01:12:11;4.39;79.94
66576;SHT31;53428;47.686;16.584;2023-11-19T01:17:10;4.50;79.64
66576;SHT31;53428;47.686;16.584;2023-11-19T01:22:09;4.43;79.71
66576;SHT31;53428;47.686;16.584;2023-11-19T01:27:08;4.40;79.89
66576;SHT31;53428;47.686;16.584;2023-11-19T01:32:08;4.50;78.92
66576;SHT31;53428;47.686;16.584;2023-11-19T01:37:07;4.75;77.93
66576;SHT31;53428;47.686;16.584;2023-11-19T01:42:09;4.75;78.04
66576;SHT31;53428;47.686;16.584;2023-11-19T01:47:08;4.71;78.26
66576;SHT31;53428;47.686;16.584;2023-11-19T01:52:08;4.61;78.38
66576;SHT31;53428;47.686;16.584;2023-11-19T01:57:07;4.57;78.82
66576;SHT31;53428;47.686;16.584;2023-11-19T02:02:06;4.54;79.17
66576;SHT31;53428;47.686;16.584;2023-11-19T02:07:05;4.44;79.97
66576;SHT31;53428;47.686;16.584;2023-11-19T02:12:05;4.36;80.53
66576;SHT31;53428;47.686;16.584;2023-11-19T02:17:04;4.35;81.03
66576;SHT31;53428;47.686;16.584;2023-11-19T02:22:04;4.37;81.23
66576;SHT31;53428;47.686;16.584;2023-11-19T02:27:31;4.36;81.46
66576;SHT31;53428;47.686;16.584;2023-11-19T02:32:32;4.33;81.81
66576;SHT31;53428;47.686;16.584;2023-11-19T02:37:32;4.36;82.92
66576;SHT31;53428;47.686;16.584;2023-11-19T02:42:31;4.46;83.73
66576;SHT31;53428;47.686;16.584;2023-11-19T02:47:31;4.08;87.31
66576;SHT31;53428;47.686;16.584;2023-11-19T02:52:30;3.89;89.19
66576;SHT31;53428;47.686;16.584;2023-11-19T02:57:34;3.74;91.27
66576;SHT31;53428;47.686;16.584;2023-11-19T03:02:33;3.64;93.18
66576;SHT31;53428;47.686;16.584;2023-11-19T03:07:43;3.50;94.65
66576;SHT31;53428;47.686;16.584;2023-11-19T03:12:44;3.46;94.80
66576;SHT31;53428;47.686;16.584;2023-11-19T03:17:44;3.40;95.19
66576;SHT31;53428;47.686;16.584;2023-11-19T03:22:44;3.33;95.96
66576;SHT31;53428;47.686;16.584;2023-11-19T03:27:43;3.15;96.71
66576;SHT31;53428;47.686;16.584;2023-11-19T03:32:43;3.13;97.48
66576;SHT31;53428;47.686;16.584;2023-11-19T03:37:42;3.06;98.41
66576;SHT31;53428;47.686;16.584;2023-11-19T03:42:42;3.12;99.31
66576;SHT31;53428;47.686;16.584;2023-11-19T03:47:42;3.10;99.67
66576;SHT31;53428;47.686;16.584;2023-11-19T03:52:42;3.27;99.86
66576;SHT31;53428;47.686;16.584;2023-11-19T03:57:42;3.13;99.79
66576;SHT31;53428;47.686;16.584;2023-11-19T04:02:41;3.16;99.88
66576;SHT31;53428;47.686;16.584;2023-11-19T04:07:40;3.12;99.99
66576;SHT31;53428;47.686;16.584;2023-11-19T04:12:39;3.03;99.99
66576;SHT31;53428;47.686;16.584;2023-11-19T04:17:39;3.06;99.99
66576;SHT31;53428;47.686;16.584;2023-11-19T04:22:38;3.02;99.99
66576;SHT31;53428;47.686;16.584;2023-11-19T04:27:37;2.99;99.99
66576;SHT31;53428;47.686;16.584;2023-11-19T04:32:37;3.06;99.99
66576;SHT31;53428;47.686;16.584;2023-11-19T04:37:37;3.03;99.99
66576;SHT31;53428;47.686;16.584;2023-11-19T04:42:36;2.96;99.99
66576;SHT31;53428;47.686;16.584;2023-11-19T04:47:38;2.99;99.99
66576;SHT31;53428;47.686;16.584;2023-11-19T04:52:38;3.09;99.99
66576;SHT31;53428;47.686;16.584;2023-11-19T04:57:43;3.10;99.99
66576;SHT31;53428;47.686;16.584;2023-11-19T05:02:43;3.12;99.92
66576;SHT31;53428;47.686;16.584;2023-11-19T05:07:42;3.19;99.95
66576;SHT31;53428;47.686;16.584;2023-11-19T05:12:42;3.18;98.69
66576;SHT31;53428;47.686;16.584;2023-11-19T05:17:41;3.12;99.56
66576;SHT31;53428;47.686;16.584;2023-11-19T05:22:41;3.12;99.86
66576;SHT31;53428;47.686;16.584;2023-11-19T05:27:40;3.09;99.53
66576;SHT31;53428;47.686;16.584;2023-11-19T05:32:39;3.19;99.09
66576;SHT31;53428;47.686;16.584;2023-11-19T05:37:39;3.16;99.82
66576;SHT31;53428;47.686;16.584;2023-11-19T05:42:38;3.27;99.99
66576;SHT31;53428;47.686;16.584;2023-11-19T05:47:37;3.37;99.09
66576;SHT31;53428;47.686;16.584;2023-11-19T05:52:37;3.37;98.51
66576;SHT31;53428;47.686;16.584;2023-11-19T05:57:37;3.30;98.35
66576;SHT31;53428;47.686;16.584;2023-11-19T06:02:36;3.41;97.70
66576;SHT31;53428;47.686;16.584;2023-11-19T06:07:37;3.47;96.90
66576;SHT31;53428;47.686;16.584;2023-11-19T06:12:38;3.36;97.49
66576;SHT31;53428;47.686;16.584;2023-11-19T06:17:39;3.60;97.09
66576;SHT31;53428;47.686;16.584;2023-11-19T06:22:39;3.60;96.21
66576;SHT31;53428;47.686;16.584;2023-11-19T06:27:42;3.54;94.63
66576;SHT31;53428;47.686;16.584;2023-11-19T06:32:41;3.67;94.43
66576;SHT31;53428;47.686;16.584;2023-11-19T06:37:41;3.78;93.85
66576;SHT31;53428;47.686;16.584;2023-11-19T06:42:40;3.71;94.89
66576;SHT31;53428;47.686;16.584;2023-11-19T06:47:40;3.87;91.46
66576;SHT31;53428;47.686;16.584;2023-11-19T06:52:39;4.01;93.83
66576;SHT31;53428;47.686;16.584;2023-11-19T06:57:38;3.96;93.32
66576;SHT31;53428;47.686;16.584;2023-11-19T07:02:38;3.85;94.98
66576;SHT31;53428;47.686;16.584;2023-11-19T07:07:38;3.85;93.87
66576;SHT31;53428;47.686;16.584;2023-11-19T07:12:37;3.98;92.67
66576;SHT31;53428;47.686;16.584;2023-11-19T07:17:36;4.01;93.21
66576;SHT31;53428;47.686;16.584;2023-11-19T07:22:35;4.05;92.65
66576;SHT31;53428;47.686;16.584;2023-11-19T07:27:34;4.01;92.68
66576;SHT31;53428;47.686;16.584;2023-11-19T07:32:33;3.99;92.49
66576;SHT31;53428;47.686;16.584;2023-11-19T07:37:33;3.88;94.24
66576;SHT31;53428;47.686;16.584;2023-11-19T07:42:32;3.96;94.13
66576;SHT31;53428;47.686;16.584;2023-11-19T07:47:31;3.95;94.03
66576;SHT31;53428;47.686;16.584;2023-11-19T07:52:30;3.96;93.88
66576;SHT31;53428;47.686;16.584;2023-11-19T07:57:29;4.06;94.23
66576;SHT31;53428;47.686;16.584;2023-11-19T08:02:29;4.22;93.86
66576;SHT31;53428;47.686;16.584;2023-11-19T08:07:29;4.22;93.46
66576;SHT31;53428;47.686;16.584;2023-11-19T08:12:28;4.42;93.30
66576;SHT31;53428;47.686;16.584;2023-11-19T08:17:27;4.57;93.76
66576;SHT31;53428;47.686;16.584;2023-11-19T08:22:26;4.70;93.10
66576;SHT31;53428;47.686;16.584;2023-11-19T08:27:26;4.80;92.51
66576;SHT31;53428;47.686;16.584;2023-11-19T08:32:26;4.95;91.61
66576;SHT31;53428;47.686;16.584;2023-11-19T08:37:25;5.11;91.60
66576;SHT31;53428;47.686;16.584;2023-11-19T08:42:26;5.12;92.70
66576;SHT31;53428;47.686;16.584;2023-11-19T08:47:25;5.29;90.90
66576;SHT31;53428;47.686;16.584;2023-11-19T08:52:24;5.94;91.07
66576;SHT31;53428;47.686;16.584;2023-11-19T08:57:23;5.98;90.16
66576;SHT31;53428;47.686;16.584;2023-11-19T09:02:22;6.00;89.80
66576;SHT31;53428;47.686;16.584;2023-11-19T09:07:22;6.40;87.35
66576;SHT31;53428;47.686;16.584;2023-11-19T09:12:21;6.11;88.15
66576;SHT31;53428;47.686;16.584;2023-11-19T09:17:20;6.14;89.72
66576;SHT31;53428;47.686;16.584;2023-11-19T09:22:19;5.66;89.91
66576;SHT31;53428;47.686;16.584;2023-11-19T09:27:19;5.71;90.42
66576;SHT31;53428;47.686;16.584;2023-11-19T09:32:19;5.84;91.04
66576;SHT31;53428;47.686;16.584;2023-11-19T09:37:18;5.83;89.40
66576;SHT31;53428;47.686;16.584;2023-11-19T09:42:18;5.91;90.87
66576;SHT31;53428;47.686;16.584;2023-11-19T09:47:18;5.94;90.30
66576;SHT31;53428;47.686;16.584;2023-11-19T09:52:19;6.11;91.17
66576;SHT31;53428;47.686;16.584;2023-11-19T09:57:18;6.00;90.30
66576;SHT31;53428;47.686;16.584;2023-11-19T10:02:18;6.09;91.35
66576;SHT31;53428;47.686;16.584;2023-11-19T10:07:17;6.15;89.28
66576;SHT31;53428;47.686;16.584;2023-11-19T10:12:16;6.35;88.26
66576;SHT31;53428;47.686;16.584;2023-11-19T10:17:17;6.52;88.38
66576;SHT31;53428;47.686;16.584;2023-11-19T10:22:16;6.81;88.83
66576;SHT31;53428;47.686;16.584;2023-11-19T10:27:17;6.83;88.45
66576;SHT31;53428;47.686;16.584;2023-11-19T10:32:16;6.91;88.91
66576;SHT31;53428;47.686;16.584;2023-11-19T10:37:28;7.14;88.81
66576;SHT31;53428;47.686;16.584;2023-11-19T10:42:30;7.19;88.08
66576;SHT31;53428;47.686;16.584;2023-11-19T10:47:30;6.90;88.46
66576;SHT31;53428;47.686;16.584;2023-11-19T10:52:30;7.26;89.34
66576;SHT31;53428;47.686;16.584;2023-11-19T10:57:30;7.05;89.81
66576;SHT31;53428;47.686;16.584;2023-11-19T11:02:35;7.16;87.80
66576;SHT31;53428;47.686;16.584;2023-11-19T11:07:38;7.52;88.41
66576;SHT31;53428;47.686;16.584;2023-11-19T11:12:40;7.61;89.04
66576;SHT31;53428;47.686;16.584;2023-11-19T11:17:41;7.52;88.58
66576;SHT31;53428;47.686;16.584;2023-11-19T11:28:18;7.80;87.42
66576;SHT31;53428;47.686;16.584;2023-11-19T11:33:41;7.93;88.14
66576;SHT31;53428;47.686;16.584;2023-11-19T11:38:41;8.00;87.87
66576;SHT31;53428;47.686;16.584;2023-11-19T11:43:50;7.94;87.22
66576;SHT31;53428;47.686;16.584;2023-11-19T11:48:50;7.76;88.16
66576;SHT31;53428;47.686;16.584;2023-11-19T11:53:51;7.65;88.52
66576;SHT31;53428;47.686;16.584;2023-11-19T11:58:50;7.77;88.83
66576;SHT31;53428;47.686;16.584;2023-11-19T12:03:50;7.89;88.72
66576;SHT31;53428;47.686;16.584;2023-11-19T12:08:50;7.91;88.27
66576;SHT31;53428;47.686;16.584;2023-11-19T12:13:56;7.87;88.65
66576;SHT31;53428;47.686;16.584;2023-11-19T12:19:02;8.11;87.48
66576;SHT31;53428;47.686;16.584;2023-11-19T12:24:03;8.48;85.89
66576;SHT31;53428;47.686;16.584;2023-11-19T12:29:07;8.28;87.79
66576;SHT31;53428;47.686;16.584;2023-11-19T12:34:08;8.18;87.06
66576;SHT31;53428;47.686;16.584;2023-11-19T12:39:10;8.32;86.14
66576;SHT31;53428;47.686;16.584;2023-11-19T12:44:11;8.84;85.43
66576;SHT31;53428;47.686;16.584;2023-11-19T12:49:11;9.14;83.80
66576;SHT31;53428;47.686;16.584;2023-11-19T12:54:10;8.44;86.31
66576;SHT31;53428;47.686;16.584;2023-11-19T12:59:12;9.38;83.79
66576;SHT31;53428;47.686;16.584;2023-11-19T13:04:18;8.90;84.49
66576;SHT31;53428;47.686;16.584;2023-11-19T13:09:25;8.66;85.55
66576;SHT31;53428;47.686;16.584;2023-11-19T13:14:36;7.55;90.67
66576;SHT31;53428;47.686;16.584;2023-11-19T13:19:37;7.59;90.99
66576;SHT31;53428;47.686;16.584;2023-11-19T13:24:36;7.66;90.69
66576;SHT31;53428;47.686;16.584;2023-11-19T13:29:36;7.42;91.38
66576;SHT31;53428;47.686;16.584;2023-11-19T13:34:36;7.03;91.98
66576;SHT31;53428;47.686;16.584;2023-11-19T13:39:35;7.25;92.29
66576;SHT31;53428;47.686;16.584;2023-11-19T13:44:34;7.22;91.92
66576;SHT31;53428;47.686;16.584;2023-11-19T13:49:33;7.24;92.11
66576;SHT31;53428;47.686;16.584;2023-11-19T13:54:33;7.03;92.89
66576;SHT31;53428;47.686;16.584;2023-11-19T13:59:32;7.45;92.20
66576;SHT31;53428;47.686;16.584;2023-11-19T14:04:31;7.69;91.15
66576;SHT31;53428;47.686;16.584;2023-11-19T14:09:30;7.39;92.09
66576;SHT31;53428;47.686;16.584;2023-11-19T14:14:30;7.09;92.87
66576;SHT31;53428;47.686;16.584;2023-11-19T14:19:29;7.34;92.76
66576;SHT31;53428;47.686;16.584;2023-11-19T14:24:28;7.25;93.09
66576;SHT31;53428;47.686;16.584;2023-11-19T14:29:27;7.35;92.77
66576;SHT31;53428;47.686;16.584;2023-11-19T14:34:30;7.77;91.40
66576;SHT31;53428;47.686;16.584;2023-11-19T14:39:31;7.59;91.76
66576;SHT31;53428;47.686;16.584;2023-11-19T14:44:30;7.61;91.78
66576;SHT31;53428;47.686;16.584;2023-11-19T14:49:29;7.67;91.31
66576;SHT31;53428;47.686;16.584;2023-11-19T14:54:28;7.65;92.78
66576;SHT31;53428;47.686;16.584;2023-11-19T14:59:27;7.49;93.67
66576;SHT31;53428;47.686;16.584;2023-11-19T15:04:27;7.31;95.08
66576;SHT31;53428;47.686;16.584;2023-11-19T15:09:26;7.04;97.64
66576;SHT31;53428;47.686;16.584;2023-11-19T15:14:25;6.73;98.71
66576;SHT31;53428;47.686;16.584;2023-11-19T15:19:25;6.79;99.36
66576;SHT31;53428;47.686;16.584;2023-11-19T15:24:24;6.73;99.95
66576;SHT31;53428;47.686;16.584;2023-11-19T15:29:24;6.77;99.99
66576;SHT31;53428;47.686;16.584;2023-11-19T15:34:23;6.76;99.99
66576;SHT31;53428;47.686;16.584;2023-11-19T15:39:23;6.73;99.99
66576;SHT31;53428;47.686;16.584;2023-11-19T15:44:25;6.67;99.99
66576;SHT31;53428;47.686;16.584;2023-11-19T15:49:24;6.67;99.99
66576;SHT31;53428;47.686;16.584;2023-11-19T15:54:23;6.70;99.99
66576;SHT31;53428;47.686;16.584;2023-11-19T15:59:22;6.67;99.99
66576;SHT31;53428;47.686;16.584;2023-11-19T16:04:21;6.73;99.99
66576;SHT31;53428;47.686;16.584;2023-11-19T16:09:20;6.73;99.99
66576;SHT31;53428;47.686;16.584;2023-11-19T16:14:21;6.73;99.99
66576;SHT31;53428;47.686;16.584;2023-11-19T16:19:20;6.60;99.99
66576;SHT31;53428;47.686;16.584;2023-11-19T16:24:19;6.59;99.99
66576;SHT31;53428;47.686;16.584;2023-11-19T16:29:18;6.53;99.99
66576;SHT31;53428;47.686;16.584;2023-11-19T16:34:18;6.60;99.99
66576;SHT31;53428;47.686;16.584;2023-11-19T16:39:17;6.65;99.99
66576;SHT31;53428;47.686;16.584;2023-11-19T16:44:16;6.59;99.99
66576;SHT31;53428;47.686;16.584;2023-11-19T16:49:16;6.53;99.99
66576;SHT31;53428;47.686;16.584;2023-11-19T16:54:17;6.32;99.99
66576;SHT31;53428;47.686;16.584;2023-11-19T16:59:17;6.32;99.99
66576;SHT31;53428;47.686;16.584;2023-11-19T17:04:16;6.28;99.99
66576;SHT31;53428;47.686;16.584;2023-11-19T17:09:16;6.22;99.99
66576;SHT31;53428;47.686;16.584;2023-11-19T17:14:15;6.19;99.99
66576;SHT31;53428;47.686;16.584;2023-11-19T17:19:14;5.94;99.99
66576;SHT31;53428;47.686;16.584;2023-11-19T17:24:14;5.90;99.99
66576;SHT31;53428;47.686;16.584;2023-11-19T17:29:13;5.98;99.99
66576;SHT31;53428;47.686;16.584;2023-11-19T17:34:14;6.11;99.99
66576;SHT31;53428;47.686;16.584;2023-11-19T17:39:13;6.07;99.99
66576;SHT31;53428;47.686;16.584;2023-11-19T17:44:14;5.98;99.99
66576;SHT31;53428;47.686;16.584;2023-11-19T17:49:13;5.71;99.99
66576;SHT31;53428;47.686;16.584;2023-11-19T17:54:12;5.78;99.99
66576;SHT31;53428;47.686;16.584;2023-11-19T17:59:11;5.84;99.99
66576;SHT31;53428;47.686;16.584;2023-11-19T18:04:12;5.77;99.99
66576;SHT31;53428;47.686;16.584;2023-11-19T18:09:11;5.83;99.99
66576;SHT31;53428;47.686;16.584;2023-11-19T18:14:12;5.74;99.99
66576;SHT31;53428;47.686;16.584;2023-11-19T18:19:11;5.73;99.99
66576;SHT31;53428;47.686;16.584;2023-11-19T18:24:10;5.70;99.99
66576;SHT31;53428;47.686;16.584;2023-11-19T18:29:10;5.78;99.99
66576;SHT31;53428;47.686;16.584;2023-11-19T18:34:10;5.78;99.99
66576;SHT31;53428;47.686;16.584;2023-11-19T18:39:10;5.94;99.99
66576;SHT31;53428;47.686;16.584;2023-11-19T18:44:13;5.97;99.99
66576;SHT31;53428;47.686;16.584;2023-11-19T18:49:15;5.97;99.99
66576;SHT31;53428;47.686;16.584;2023-11-19T18:54:17;5.77;99.99
66576;SHT31;53428;47.686;16.584;2023-11-19T18:59:20;5.53;99.99
66576;SHT31;53428;47.686;16.584;2023-11-19T19:04:20;5.61;99.99
66576;SHT31;53428;47.686;16.584;2023-11-19T19:09:22;5.52;99.99
66576;SHT31;53428;47.686;16.584;2023-11-19T19:14:22;5.53;99.99
66576;SHT31;53428;47.686;16.584;2023-11-19T19:19:23;5.56;99.99
66576;SHT31;53428;47.686;16.584;2023-11-19T19:24:23;5.49;99.99
66576;SHT31;53428;47.686;16.584;2023-11-19T19:29:23;5.47;99.99
66576;SHT31;53428;47.686;16.584;2023-11-19T19:34:23;5.09;99.99
66576;SHT31;53428;47.686;16.584;2023-11-19T19:39:25;5.07;99.99
66576;SHT31;53428;47.686;16.584;2023-11-19T19:44:27;5.01;99.99
66576;SHT31;53428;47.686;16.584;2023-11-19T19:49:27;4.61;99.99
66576;SHT31;53428;47.686;16.584;2023-11-19T19:54:28;4.61;99.99
66576;SHT31;53428;47.686;16.584;2023-11-19T19:59:28;4.94;99.99
66576;SHT31;53428;47.686;16.584;2023-11-19T20:04:28;5.11;99.99
66576;SHT31;53428;47.686;16.584;2023-11-19T20:09:27;5.15;99.99
66576;SHT31;53428;47.686;16.584;2023-11-19T20:14:26;5.28;99.99
66576;SHT31;53428;47.686;16.584;2023-11-19T20:19:26;5.56;99.99
66576;SHT31;53428;47.686;16.584;2023-11-19T20:24:25;5.59;99.99
66576;SHT31;53428;47.686;16.584;2023-11-19T20:29:25;6.11;99.99
66576;SHT31;53428;47.686;16.584;2023-11-19T20:34:24;6.19;99.99
66576;SHT31;53428;47.686;16.584;2023-11-19T20:39:25;6.00;99.99
66576;SHT31;53428;47.686;16.584;2023-11-19T20:44:25;6.05;99.99
66576;SHT31;53428;47.686;16.584;2023-11-19T20:49:26;6.25;99.99
66576;SHT31;53428;47.686;16.584;2023-11-19T20:54:25;6.17;99.99
66576;SHT31;53428;47.686;16.584;2023-11-19T20:59:24;6.25;99.99
66576;SHT31;53428;47.686;16.584;2023-11-19T21:04:23;6.19;99.99
66576;SHT31;53428;47.686;16.584;2023-11-19T21:09:23;6.05;99.99
66576;SHT31;53428;47.686;16.584;2023-11-19T21:14:22;6.15;99.99
66576;SHT31;53428;47.686;16.584;2023-11-19T21:19:23;6.12;99.99
66576;SHT31;53428;47.686;16.584;2023-11-19T21:24:22;6.04;99.99
66576;SHT31;53428;47.686;16.584;2023-11-19T21:29:21;6.14;99.99
66576;SHT31;53428;47.686;16.584;2023-11-19T21:34:20;6.25;99.99
66576;SHT31;53428;47.686;16.584;2023-11-19T21:39:22;6.33;99.99
66576;SHT31;53428;47.686;16.584;2023-11-19T21:44:22;6.40;99.99
66576;SHT31;53428;47.686;16.584;2023-11-19T21:49:21;6.48;99.99
66576;SHT31;53428;47.686;16.584;2023-11-19T21:54:21;6.54;99.99
66576;SHT31;53428;47.686;16.584;2023-11-19T21:59:20;6.57;99.99
66576;SHT31;53428;47.686;16.584;2023-11-19T22:04:19;6.63;99.99
66576;SHT31;53428;47.686;16.584;2023-11-19T22:09:18;6.63;99.99
66576;SHT31;53428;47.686;16.584;2023-11-19T22:14:18;6.57;99.99
66576;SHT31;53428;47.686;16.584;2023-11-19T22:19:17;6.43;99.99
66576;SHT31;53428;47.686;16.584;2023-11-19T22:24:16;6.56;99.99
66576;SHT31;53428;47.686;16.584;2023-11-19T22:29:16;6.81;99.99
66576;SHT31;53428;47.686;16.584;2023-11-19T22:34:15;6.84;99.99
66576;SHT31;53428;47.686;16.584;2023-11-19T22:39:14;6.91;99.99
66576;SHT31;53428;47.686;16.584;2023-11-19T22:44:14;6.72;99.99
66576;SHT31;53428;47.686;16.584;2023-11-19T22:49:13;7.24;99.99
66576;SHT31;53428;47.686;16.584;2023-11-19T22:54:12;7.25;99.99
66576;SHT31;53428;47.686;16.584;2023-11-19T22:59:11;7.52;99.99
66576;SHT31;53428;47.686;16.584;2023-11-19T23:04:11;7.76;99.99
66576;SHT31;53428;47.686;16.584;2023-11-19T23:09:10;8.15;99.99
66576;SHT31;53428;47.686;16.584;2023-11-19T23:14:09;8.22;99.99
66576;SHT31;53428;47.686;16.584;2023-11-19T23:19:08;8.45;99.99
66576;SHT31;53428;47.686;16.584;2023-11-19T23:24:09;8.66;99.99
66576;SHT31;53428;47.686;16.584;2023-11-19T23:29:08;8.63;99.99
66576;SHT31;53428;47.686;16.584;2023-11-19T23:34:08;9.04;99.59
66576;SHT31;53428;47.686;16.584;2023-11-19T23:39:07;9.47;98.88
66576;SHT31;53428;47.686;16.584;2023-11-19T23:44:06;9.72;97.49
66576;SHT31;53428;47.686;16.584;2023-11-19T23:49:05;10.16;94.67
66576;SHT31;53428;47.686;16.584;2023-11-19T23:54:05;10.34;92.98
66576;SHT31;53428;47.686;16.584;2023-11-19T23:59:04;10.30;93.04
